sensor_id;sensor_type;location;lat;lon;timestamp;pressure;altitude;pressure_sealevel;temperature
65765;BMP180;52915;53.718;19.946;2023-07-13T00:00:30;99958.00;;;19.10
65765;BMP180;52915;53.718;19.946;2023-07-13T00:06:01;99961.00;;;18.90
65765;BMP180;52915;53.718;19.946;2023-07-13T00:11:05;99960.60;;;18.90
65765;BMP180;52915;53.718;19.946;2023-07-13T00:16:11;99963.80;;;19.00
65765;BMP180;52915;53.718;19.946;2023-07-13T00:21:18;99969.60;;;18.90
65765;BMP180;52915;53.718;19.946;2023-07-13T00:26:22;99973.80;;;18.70
65765;BMP180;52915;53.718;19.946;2023-07-13T00:31:26;99981.40;;;18.60
65765;BMP180;52915;53.718;19.946;2023-07-13T00:36:31;99984.80;;;18.60
65765;BMP180;52915;53.718;19.946;2023-07-13T00:41:36;99976.80;;;18.60
65765;BMP180;52915;53.718;19.946;2023-07-13T00:46:41;99975.20;;;18.50
65765;BMP180;52915;53.718;19.946;2023-07-13T00:51:53;99972.00;;;18.34
65765;BMP180;52915;53.718;19.946;2023-07-13T00:57:02;99971.40;;;18.30
65765;BMP180;52915;53.718;19.946;2023-07-13T01:02:07;99962.40;;;18.34
65765;BMP180;52915;53.718;19.946;2023-07-13T01:07:12;99961.20;;;18.34
65765;BMP180;52915;53.718;19.946;2023-07-13T01:12:17;99958.40;;;18.20
65765;BMP180;52915;53.718;19.946;2023-07-13T01:17:21;99956.60;;;18.00
65765;BMP180;52915;53.718;19.946;2023-07-13T01:22:26;99968.60;;;18.00
65765;BMP180;52915;53.718;19.946;2023-07-13T01:27:30;99982.60;;;18.10
65765;BMP180;52915;53.718;19.946;2023-07-13T01:32:35;99987.80;;;18.02
65765;BMP180;52915;53.718;19.946;2023-07-13T01:37:40;99992.60;;;17.80
65765;BMP180;52915;53.718;19.946;2023-07-13T01:42:44;99994.40;;;17.60
65765;BMP180;52915;53.718;19.946;2023-07-13T01:47:48;100005.00;;;17.60
65765;BMP180;52915;53.718;19.946;2023-07-13T01:52:53;100019.60;;;17.70
65765;BMP180;52915;53.718;19.946;2023-07-13T01:57:58;100015.40;;;17.76
65765;BMP180;52915;53.718;19.946;2023-07-13T02:03:02;100005.20;;;17.80
65765;BMP180;52915;53.718;19.946;2023-07-13T02:08:06;100010.60;;;17.90
65765;BMP180;52915;53.718;19.946;2023-07-13T02:13:10;100001.20;;;17.80
65765;BMP180;52915;53.718;19.946;2023-07-13T02:18:14;99989.60;;;17.70
65765;BMP180;52915;53.718;19.946;2023-07-13T02:23:21;99981.20;;;17.74
65765;BMP180;52915;53.718;19.946;2023-07-13T02:28:25;99988.40;;;17.80
65765;BMP180;52915;53.718;19.946;2023-07-13T02:33:29;99986.20;;;17.70
65765;BMP180;52915;53.718;19.946;2023-07-13T02:38:35;99993.00;;;17.52
65765;BMP180;52915;53.718;19.946;2023-07-13T02:43:40;99991.20;;;17.50
65765;BMP180;52915;53.718;19.946;2023-07-13T02:48:44;100001.80;;;17.60
65765;BMP180;52915;53.718;19.946;2023-07-13T02:53:48;100011.20;;;17.60
65765;BMP180;52915;53.718;19.946;2023-07-13T02:58:53;100011.20;;;17.60
65765;BMP180;52915;53.718;19.946;2023-07-13T03:03:58;100007.80;;;17.64
65765;BMP180;52915;53.718;19.946;2023-07-13T03:09:02;100002.40;;;17.70
65765;BMP180;52915;53.718;19.946;2023-07-13T03:14:08;99989.40;;;17.70
65765;BMP180;52915;53.718;19.946;2023-07-13T03:19:12;99991.20;;;17.60
65765;BMP180;52915;53.718;19.946;2023-07-13T03:24:17;99986.80;;;17.70
65765;BMP180;52915;53.718;19.946;2023-07-13T03:29:21;99991.40;;;17.70
65765;BMP180;52915;53.718;19.946;2023-07-13T03:34:25;99986.00;;;17.80
65765;BMP180;52915;53.718;19.946;2023-07-13T03:39:29;99985.80;;;17.90
65765;BMP180;52915;53.718;19.946;2023-07-13T03:44:34;99996.40;;;18.00
65765;BMP180;52915;53.718;19.946;2023-07-13T03:49:38;99993.60;;;18.00
65765;BMP180;52915;53.718;19.946;2023-07-13T03:54:43;99983.80;;;18.10
65765;BMP180;52915;53.718;19.946;2023-07-13T03:59:47;99996.40;;;18.20
65765;BMP180;52915;53.718;19.946;2023-07-13T04:04:52;100002.00;;;18.26
65765;BMP180;52915;53.718;19.946;2023-07-13T04:09:57;100006.80;;;18.10
65765;BMP180;52915;53.718;19.946;2023-07-13T04:15:02;99999.00;;;18.20
65765;BMP180;52915;53.718;19.946;2023-07-13T04:20:07;100012.60;;;18.40
65765;BMP180;52915;53.718;19.946;2023-07-13T04:25:11;100019.80;;;18.54
65765;BMP180;52915;53.718;19.946;2023-07-13T04:30:15;100019.00;;;18.60
65765;BMP180;52915;53.718;19.946;2023-07-13T04:35:20;100022.40;;;18.50
65765;BMP180;52915;53.718;19.946;2023-07-13T04:40:27;100026.80;;;18.60
65765;BMP180;52915;53.718;19.946;2023-07-13T04:45:30;100038.40;;;18.80
65765;BMP180;52915;53.718;19.946;2023-07-13T04:50:39;100036.40;;;19.10
65765;BMP180;52915;53.718;19.946;2023-07-13T04:55:43;100039.00;;;19.20
65765;BMP180;52915;53.718;19.946;2023-07-13T05:00:48;100046.80;;;19.30
65765;BMP180;52915;53.718;19.946;2023-07-13T05:05:59;100059.00;;;19.50
65765;BMP180;52915;53.718;19.946;2023-07-13T05:11:05;100056.00;;;19.60
65765;BMP180;52915;53.718;19.946;2023-07-13T05:16:11;100055.20;;;19.60
65765;BMP180;52915;53.718;19.946;2023-07-13T05:21:16;100053.80;;;19.70
65765;BMP180;52915;53.718;19.946;2023-07-13T05:26:20;100052.20;;;20.00
65765;BMP180;52915;53.718;19.946;2023-07-13T05:31:24;100051.80;;;20.30
65765;BMP180;52915;53.718;19.946;2023-07-13T05:36:29;100069.20;;;20.40
65765;BMP180;52915;53.718;19.946;2023-07-13T05:41:33;100075.00;;;20.30
65765;BMP180;52915;53.718;19.946;2023-07-13T05:46:37;100085.20;;;20.44
65765;BMP180;52915;53.718;19.946;2023-07-13T05:51:42;100092.40;;;20.60
65765;BMP180;52915;53.718;19.946;2023-07-13T05:56:46;100089.00;;;20.88
65765;BMP180;52915;53.718;19.946;2023-07-13T06:01:51;100097.80;;;21.24
65765;BMP180;52915;53.718;19.946;2023-07-13T06:06:56;100099.80;;;21.60
65765;BMP180;52915;53.718;19.946;2023-07-13T06:12:00;100099.20;;;22.00
65765;BMP180;52915;53.718;19.946;2023-07-13T06:17:05;100107.40;;;22.40
65765;BMP180;52915;53.718;19.946;2023-07-13T06:22:10;100120.20;;;22.70
65765;BMP180;52915;53.718;19.946;2023-07-13T06:27:14;100118.60;;;22.90
65765;BMP180;52915;53.718;19.946;2023-07-13T06:32:18;100120.40;;;23.36
65765;BMP180;52915;53.718;19.946;2023-07-13T06:37:23;100125.60;;;23.60
65765;BMP180;52915;53.718;19.946;2023-07-13T06:42:27;100129.80;;;23.70
65765;BMP180;52915;53.718;19.946;2023-07-13T06:47:32;100138.20;;;23.66
65765;BMP180;52915;53.718;19.946;2023-07-13T06:52:36;100131.80;;;23.40
65765;BMP180;52915;53.718;19.946;2023-07-13T06:57:40;100127.60;;;23.80
65765;BMP180;52915;53.718;19.946;2023-07-13T07:02:45;100126.00;;;24.10
65765;BMP180;52915;53.718;19.946;2023-07-13T07:07:51;100112.20;;;24.48
65765;BMP180;52915;53.718;19.946;2023-07-13T07:12:55;100109.60;;;24.50
65765;BMP180;52915;53.718;19.946;2023-07-13T07:17:59;100113.20;;;24.70
65765;BMP180;52915;53.718;19.946;2023-07-13T07:23:03;100112.80;;;25.04
65765;BMP180;52915;53.718;19.946;2023-07-13T07:28:09;100098.60;;;25.20
65765;BMP180;52915;53.718;19.946;2023-07-13T07:33:16;100099.00;;;25.20
65765;BMP180;52915;53.718;19.946;2023-07-13T07:38:20;100093.40;;;25.54
65765;BMP180;52915;53.718;19.946;2023-07-13T07:43:27;100096.20;;;25.88
65765;BMP180;52915;53.718;19.946;2023-07-13T07:48:31;100097.80;;;26.16
65765;BMP180;52915;53.718;19.946;2023-07-13T07:53:36;100088.60;;;26.40
65765;BMP180;52915;53.718;19.946;2023-07-13T07:58:52;100086.40;;;26.50
65765;BMP180;52915;53.718;19.946;2023-07-13T08:03:59;100095.20;;;26.54
65765;BMP180;52915;53.718;19.946;2023-07-13T08:09:06;100104.80;;;26.80
65765;BMP180;52915;53.718;19.946;2023-07-13T08:14:13;100106.60;;;27.00
65765;BMP180;52915;53.718;19.946;2023-07-13T08:19:17;100112.40;;;27.16
65765;BMP180;52915;53.718;19.946;2023-07-13T08:24:23;100113.60;;;27.30
65765;BMP180;52915;53.718;19.946;2023-07-13T08:29:28;100111.40;;;27.68
65765;BMP180;52915;53.718;19.946;2023-07-13T08:34:35;100103.60;;;28.04
65765;BMP180;52915;53.718;19.946;2023-07-13T08:39:40;100105.40;;;28.32
65765;BMP180;52915;53.718;19.946;2023-07-13T08:45:17;100112.80;;;28.70
65765;BMP180;52915;53.718;19.946;2023-07-13T08:50:35;100113.60;;;29.14
65765;BMP180;52915;53.718;19.946;2023-07-13T08:56:05;100118.60;;;29.40
65765;BMP180;52915;53.718;19.946;2023-07-13T09:16:20;100115.00;;;29.90
65765;BMP180;52915;53.718;19.946;2023-07-13T09:21:34;100116.60;;;30.00
65765;BMP180;52915;53.718;19.946;2023-07-13T09:26:40;100122.80;;;30.00
65765;BMP180;52915;53.718;19.946;2023-07-13T09:31:52;100122.80;;;30.10
65765;BMP180;52915;53.718;19.946;2023-07-13T09:36:57;100122.40;;;29.90
65765;BMP180;52915;53.718;19.946;2023-07-13T09:47:18;100134.60;;;30.40
65765;BMP180;52915;53.718;19.946;2023-07-13T09:52:24;100139.20;;;30.10
65765;BMP180;52915;53.718;19.946;2023-07-13T09:57:29;100136.60;;;30.50
65765;BMP180;52915;53.718;19.946;2023-07-13T10:08:05;100151.60;;;30.70
65765;BMP180;52915;53.718;19.946;2023-07-13T10:13:33;100143.80;;;30.40
65765;BMP180;52915;53.718;19.946;2023-07-13T10:18:49;100149.80;;;30.40
65765;BMP180;52915;53.718;19.946;2023-07-13T10:24:00;100140.00;;;30.60
65765;BMP180;52915;53.718;19.946;2023-07-13T10:29:12;100133.40;;;30.90
65765;BMP180;52915;53.718;19.946;2023-07-13T10:34:18;100147.00;;;31.26
65765;BMP180;52915;53.718;19.946;2023-07-13T10:39:27;100145.60;;;30.90
65765;BMP180;52915;53.718;19.946;2023-07-13T10:44:33;100147.40;;;30.52
65765;BMP180;52915;53.718;19.946;2023-07-13T10:49:39;100120.40;;;29.94
65765;BMP180;52915;53.718;19.946;2023-07-13T10:54:45;100136.40;;;30.50
65765;BMP180;52915;53.718;19.946;2023-07-13T11:00:17;100128.60;;;30.64
65765;BMP180;52915;53.718;19.946;2023-07-13T11:05:33;100130.00;;;31.26
65765;BMP180;52915;53.718;19.946;2023-07-13T11:10:55;100127.80;;;31.70
65765;BMP180;52915;53.718;19.946;2023-07-13T11:16:00;100133.60;;;31.98
65765;BMP180;52915;53.718;19.946;2023-07-13T11:21:25;100129.80;;;31.52
65765;BMP180;52915;53.718;19.946;2023-07-13T11:31:59;100115.40;;;30.74
65765;BMP180;52915;53.718;19.946;2023-07-13T11:37:07;100109.80;;;31.20
65765;BMP180;52915;53.718;19.946;2023-07-13T11:42:21;100131.40;;;30.76
65765;BMP180;52915;53.718;19.946;2023-07-13T11:47:40;100122.60;;;30.30
65765;BMP180;52915;53.718;19.946;2023-07-13T11:52:48;100131.20;;;30.00
65765;BMP180;52915;53.718;19.946;2023-07-13T11:58:01;100133.00;;;29.90
65765;BMP180;52915;53.718;19.946;2023-07-13T12:03:06;100135.80;;;29.80
65765;BMP180;52915;53.718;19.946;2023-07-13T12:08:11;100131.40;;;29.70
65765;BMP180;52915;53.718;19.946;2023-07-13T12:13:28;100135.20;;;29.68
65765;BMP180;52915;53.718;19.946;2023-07-13T12:18:33;100135.40;;;29.60
65765;BMP180;52915;53.718;19.946;2023-07-13T12:23:38;100136.80;;;29.40
65765;BMP180;52915;53.718;19.946;2023-07-13T12:28:53;100142.20;;;29.40
65765;BMP180;52915;53.718;19.946;2023-07-13T12:34:16;100136.00;;;29.60
65765;BMP180;52915;53.718;19.946;2023-07-13T12:39:25;100137.40;;;29.70
65765;BMP180;52915;53.718;19.946;2023-07-13T12:44:33;100135.00;;;29.38
65765;BMP180;52915;53.718;19.946;2023-07-13T12:49:57;100130.40;;;29.10
65765;BMP180;52915;53.718;19.946;2023-07-13T12:55:13;100130.80;;;29.00
65765;BMP180;52915;53.718;19.946;2023-07-13T13:00:37;100132.40;;;28.70
65765;BMP180;52915;53.718;19.946;2023-07-13T13:05:42;100134.80;;;28.50
65765;BMP180;52915;53.718;19.946;2023-07-13T13:10:49;100134.20;;;28.10
65765;BMP180;52915;53.718;19.946;2023-07-13T13:15:54;100145.20;;;27.70
65765;BMP180;52915;53.718;19.946;2023-07-13T13:20:59;100157.40;;;27.30
65765;BMP180;52915;53.718;19.946;2023-07-13T13:26:11;100151.00;;;26.68
65765;BMP180;52915;53.718;19.946;2023-07-13T13:31:17;100154.20;;;26.10
65765;BMP180;52915;53.718;19.946;2023-07-13T13:36:23;100165.80;;;25.60
65765;BMP180;52915;53.718;19.946;2023-07-13T13:41:27;100173.40;;;25.14
65765;BMP180;52915;53.718;19.946;2023-07-13T13:46:31;100174.40;;;24.66
65765;BMP180;52915;53.718;19.946;2023-07-13T13:51:36;100163.20;;;24.30
65765;BMP180;52915;53.718;19.946;2023-07-13T13:56:47;100158.20;;;23.70
65765;BMP180;52915;53.718;19.946;2023-07-13T14:01:51;100167.80;;;23.04
65765;BMP180;52915;53.718;19.946;2023-07-13T14:06:55;100168.60;;;22.70
65765;BMP180;52915;53.718;19.946;2023-07-13T14:12:00;100186.60;;;22.60
65765;BMP180;52915;53.718;19.946;2023-07-13T14:17:08;100193.80;;;22.50
65765;BMP180;52915;53.718;19.946;2023-07-13T14:22:18;100196.60;;;22.40
65765;BMP180;52915;53.718;19.946;2023-07-13T14:27:22;100183.00;;;22.40
65765;BMP180;52915;53.718;19.946;2023-07-13T14:32:26;100176.80;;;22.30
65765;BMP180;52915;53.718;19.946;2023-07-13T14:37:37;100177.00;;;22.20
65765;BMP180;52915;53.718;19.946;2023-07-13T14:42:43;100182.00;;;22.10
65765;BMP180;52915;53.718;19.946;2023-07-13T14:47:48;100186.80;;;22.10
65765;BMP180;52915;53.718;19.946;2023-07-13T14:52:55;100192.20;;;22.06
65765;BMP180;52915;53.718;19.946;2023-07-13T14:57:59;100189.60;;;22.00
65765;BMP180;52915;53.718;19.946;2023-07-13T15:03:05;100199.40;;;22.20
65765;BMP180;52915;53.718;19.946;2023-07-13T15:08:11;100204.60;;;22.68
65765;BMP180;52915;53.718;19.946;2023-07-13T15:13:20;100191.40;;;23.18
65765;BMP180;52915;53.718;19.946;2023-07-13T15:18:25;100189.00;;;23.80
65765;BMP180;52915;53.718;19.946;2023-07-13T15:23:31;100191.20;;;24.10
65765;BMP180;52915;53.718;19.946;2023-07-13T15:28:35;100176.00;;;24.48
65765;BMP180;52915;53.718;19.946;2023-07-13T15:33:39;100168.40;;;25.12
65765;BMP180;52915;53.718;19.946;2023-07-13T15:38:48;100182.60;;;25.70
65765;BMP180;52915;53.718;19.946;2023-07-13T15:43:57;100193.00;;;26.02
65765;BMP180;52915;53.718;19.946;2023-07-13T15:49:09;100183.00;;;27.40
65765;BMP180;52915;53.718;19.946;2023-07-13T15:54:17;100200.20;;;27.26
65765;BMP180;52915;53.718;19.946;2023-07-13T15:59:22;100214.00;;;26.60
65765;BMP180;52915;53.718;19.946;2023-07-13T16:04:27;100219.40;;;26.14
65765;BMP180;52915;53.718;19.946;2023-07-13T16:09:32;100228.20;;;25.70
65765;BMP180;52915;53.718;19.946;2023-07-13T16:14:36;100225.60;;;25.24
65765;BMP180;52915;53.718;19.946;2023-07-13T16:19:41;100234.60;;;24.80
65765;BMP180;52915;53.718;19.946;2023-07-13T16:24:45;100234.60;;;24.30
65765;BMP180;52915;53.718;19.946;2023-07-13T16:29:51;100242.00;;;23.90
65765;BMP180;52915;53.718;19.946;2023-07-13T16:34:55;100244.00;;;23.50
65765;BMP180;52915;53.718;19.946;2023-07-13T16:39:59;100246.80;;;23.20
65765;BMP180;52915;53.718;19.946;2023-07-13T16:45:05;100246.80;;;22.90
65765;BMP180;52915;53.718;19.946;2023-07-13T16:50:24;100256.80;;;22.80
65765;BMP180;52915;53.718;19.946;2023-07-13T16:55:29;100258.20;;;22.80
65765;BMP180;52915;53.718;19.946;2023-07-13T17:00:33;100267.00;;;22.60
65765;BMP180;52915;53.718;19.946;2023-07-13T17:05:43;100265.80;;;22.40
65765;BMP180;52915;53.718;19.946;2023-07-13T17:10:50;100258.40;;;22.30
65765;BMP180;52915;53.718;19.946;2023-07-13T17:15:57;100247.20;;;22.14
65765;BMP180;52915;53.718;19.946;2023-07-13T17:21:05;100232.40;;;22.10
65765;BMP180;52915;53.718;19.946;2023-07-13T17:26:10;100203.00;;;22.00
65765;BMP180;52915;53.718;19.946;2023-07-13T17:31:19;100210.20;;;22.00
65765;BMP180;52915;53.718;19.946;2023-07-13T17:36:25;100212.20;;;22.20
65765;BMP180;52915;53.718;19.946;2023-07-13T17:41:30;100209.80;;;22.40
65765;BMP180;52915;53.718;19.946;2023-07-13T17:46:34;100218.00;;;22.30
65765;BMP180;52915;53.718;19.946;2023-07-13T17:51:39;100222.00;;;22.10
65765;BMP180;52915;53.718;19.946;2023-07-13T17:56:45;100224.20;;;21.90
65765;BMP180;52915;53.718;19.946;2023-07-13T18:01:51;100233.40;;;21.80
65765;BMP180;52915;53.718;19.946;2023-07-13T18:06:57;100231.60;;;21.90
65765;BMP180;52915;53.718;19.946;2023-07-13T18:12:12;100238.20;;;21.80
65765;BMP180;52915;53.718;19.946;2023-07-13T18:17:18;100248.80;;;21.60
65765;BMP180;52915;53.718;19.946;2023-07-13T18:22:27;100258.00;;;21.30
65765;BMP180;52915;53.718;19.946;2023-07-13T18:27:35;100262.60;;;21.20
65765;BMP180;52915;53.718;19.946;2023-07-13T18:32:49;100268.20;;;21.26
65765;BMP180;52915;53.718;19.946;2023-07-13T18:37:56;100262.00;;;21.30
65765;BMP180;52915;53.718;19.946;2023-07-13T18:43:03;100256.80;;;21.20
65765;BMP180;52915;53.718;19.946;2023-07-13T18:48:21;100255.60;;;21.10
65765;BMP180;52915;53.718;19.946;2023-07-13T18:53:26;100264.60;;;21.00
65765;BMP180;52915;53.718;19.946;2023-07-13T18:58:31;100252.40;;;20.92
65765;BMP180;52915;53.718;19.946;2023-07-13T19:03:39;100261.80;;;20.90
65765;BMP180;52915;53.718;19.946;2023-07-13T19:08:44;100258.40;;;20.80
65765;BMP180;52915;53.718;19.946;2023-07-13T19:13:50;100242.80;;;20.70
65765;BMP180;52915;53.718;19.946;2023-07-13T19:18:55;100247.20;;;20.60
65765;BMP180;52915;53.718;19.946;2023-07-13T19:24:02;100246.00;;;20.60
65765;BMP180;52915;53.718;19.946;2023-07-13T19:29:14;100255.20;;;20.60
65765;BMP180;52915;53.718;19.946;2023-07-13T19:34:26;100255.20;;;20.60
65765;BMP180;52915;53.718;19.946;2023-07-13T19:39:36;100267.00;;;20.58
65765;BMP180;52915;53.718;19.946;2023-07-13T19:44:43;100267.80;;;20.50
65765;BMP180;52915;53.718;19.946;2023-07-13T19:49:48;100270.80;;;20.50
65765;BMP180;52915;53.718;19.946;2023-07-13T19:54:55;100266.60;;;20.40
65765;BMP180;52915;53.718;19.946;2023-07-13T20:00:00;100269.60;;;20.30
65765;BMP180;52915;53.718;19.946;2023-07-13T20:05:07;100276.20;;;20.12
65765;BMP180;52915;53.718;19.946;2023-07-13T20:10:30;100275.80;;;19.90
65765;BMP180;52915;53.718;19.946;2023-07-13T20:15:37;100281.80;;;19.80
65765;BMP180;52915;53.718;19.946;2023-07-13T20:20:44;100290.00;;;19.80
65765;BMP180;52915;53.718;19.946;2023-07-13T20:25:50;100290.20;;;19.70
65765;BMP180;52915;53.718;19.946;2023-07-13T20:30:55;100295.60;;;19.60
65765;BMP180;52915;53.718;19.946;2023-07-13T20:36:05;100298.00;;;19.50
65765;BMP180;52915;53.718;19.946;2023-07-13T20:41:11;100293.80;;;19.40
65765;BMP180;52915;53.718;19.946;2023-07-13T20:46:18;100298.60;;;19.30
65765;BMP180;52915;53.718;19.946;2023-07-13T20:51:23;100299.60;;;19.30
65765;BMP180;52915;53.718;19.946;2023-07-13T20:56:31;100303.00;;;19.20
65765;BMP180;52915;53.718;19.946;2023-07-13T21:01:36;100299.60;;;19.20
65765;BMP180;52915;53.718;19.946;2023-07-13T21:06:41;100297.80;;;19.20
65765;BMP180;52915;53.718;19.946;2023-07-13T21:11:47;100298.00;;;19.10
65765;BMP180;52915;53.718;19.946;2023-07-13T21:16:52;100292.00;;;19.10
65765;BMP180;52915;53.718;19.946;2023-07-13T21:21:57;100299.40;;;19.00
65765;BMP180;52915;53.718;19.946;2023-07-13T21:27:03;100299.00;;;18.70
65765;BMP180;52915;53.718;19.946;2023-07-13T21:32:14;100304.20;;;18.60
65765;BMP180;52915;53.718;19.946;2023-07-13T21:37:21;100303.80;;;18.52
65765;BMP180;52915;53.718;19.946;2023-07-13T21:42:26;100304.60;;;18.50
65765;BMP180;52915;53.718;19.946;2023-07-13T21:47:29;100312.40;;;18.50
65765;BMP180;52915;53.718;19.946;2023-07-13T21:52:36;100319.60;;;18.50
65765;BMP180;52915;53.718;19.946;2023-07-13T21:57:40;100320.80;;;18.40
65765;BMP180;52915;53.718;19.946;2023-07-13T22:02:45;100322.00;;;18.30
65765;BMP180;52915;53.718;19.946;2023-07-13T22:07:50;100318.20;;;18.30
65765;BMP180;52915;53.718;19.946;2023-07-13T22:12:54;100315.60;;;18.30
65765;BMP180;52915;53.718;19.946;2023-07-13T22:17:58;100315.20;;;18.40
65765;BMP180;52915;53.718;19.946;2023-07-13T22:23:21;100314.60;;;18.40
65765;BMP180;52915;53.718;19.946;2023-07-13T22:28:27;100301.20;;;18.40
65765;BMP180;52915;53.718;19.946;2023-07-13T22:33:31;100291.40;;;18.30
65765;BMP180;52915;53.718;19.946;2023-07-13T22:38:37;100293.20;;;18.20
65765;BMP180;52915;53.718;19.946;2023-07-13T22:43:42;100292.60;;;18.20
65765;BMP180;52915;53.718;19.946;2023-07-13T22:49:21;100294.20;;;18.20
65765;BMP180;52915;53.718;19.946;2023-07-13T22:54:30;100298.80;;;18.20
65765;BMP180;52915;53.718;19.946;2023-07-13T22:59:35;100297.20;;;18.10
65765;BMP180;52915;53.718;19.946;2023-07-13T23:04:40;100279.60;;;18.10
65765;BMP180;52915;53.718;19.946;2023-07-13T23:09:44;100280.20;;;18.10
65765;BMP180;52915;53.718;19.946;2023-07-13T23:15:15;100288.20;;;18.10
65765;BMP180;52915;53.718;19.946;2023-07-13T23:20:34;100292.60;;;18.10
65765;BMP180;52915;53.718;19.946;2023-07-13T23:25:39;100283.60;;;18.00
65765;BMP180;52915;53.718;19.946;2023-07-13T23:30:47;100292.60;;;17.90
65765;BMP180;52915;53.718;19.946;2023-07-13T23:35:57;100304.20;;;17.92
65765;BMP180;52915;53.718;19.946;2023-07-13T23:41:02;100370.80;;;17.90
65765;BMP180;52915;53.718;19.946;2023-07-13T23:46:45;100377.80;;;17.70
65765;BMP180;52915;53.718;19.946;2023-07-13T23:51:54;100385.00;;;17.30
65765;BMP180;52915;53.718;19.946;2023-07-13T23:57:00;100380.60;;;16.60
